»·PEaware :: FDX14 KLAS-KDEN

FDX14 :: KLAS-KDEN

FLIGHT INFORMATION

Flight Status: Arrived
Operator:
Federal Express
More flights by this operator :: More flights under this callsign
Pilot: Lucas B. (17570)
Aircraft: BOEING 767-300
(B763)
More flights by this aircraft type
Origin: KLAS McCarran Intl
United States
Destination: KDEN Denver Intl
United States
More flights between these airports :: More routes between these airports
Route: STAAV8 DVC WOLLF CREDE3
File this flight plan on PilotEdge
Remarks: RMK / SIMBRIEF
Altitude:
(Current/Filed)
35,000ft
Speed:
(Current/Filed)
461kts
Departed: 23-Mar-20 12:02 PM
Arrived: 23-Mar-20 01:31 PM
Distance/Time
Traveled:
544nm/1:28
Distance/Time
To Go:
Arrived

Flight Plot

Page will automatically refresh every two minutes.

Flight plan parsing failed; only flown route is shown


Map Options




Map Legend


Flown Route
Filed Route
Departure Airport
Arrival Airport
Navaid (VOR, NDB)
Fix

Horizontal Profiles

Position Reports

Time Latitude Longitude Heading Altitude Ground
Speed
23-Mar-20 11:40 36.080155 -115.125666 89 2040ft 0kts
23-Mar-20 11:41 36.080155 -115.125666 89 2040ft 0kts
23-Mar-20 11:42 36.080155 -115.125666 89 2040ft 0kts
23-Mar-20 11:43 36.080155 -115.125666 89 2040ft 0kts
23-Mar-20 11:44 36.080155 -115.125666 89 2040ft 0kts
23-Mar-20 11:45 36.080155 -115.125666 89 2040ft 0kts
23-Mar-20 11:46 36.080155 -115.125666 89 2040ft 0kts
23-Mar-20 11:47 36.080155 -115.125666 89 2040ft 0kts
23-Mar-20 11:48 36.080155 -115.125666 89 2040ft 0kts
23-Mar-20 11:49 36.080153 -115.125759 89 2040ft 2kts
23-Mar-20 11:50 36.080407 -115.126346 158 2041ft 2kts
23-Mar-20 11:51 36.080618 -115.126389 180 2040ft 0kts
23-Mar-20 11:52 36.080618 -115.126389 180 2040ft 0kts
23-Mar-20 11:53 36.080618 -115.126389 180 2040ft 0kts
23-Mar-20 11:54 36.080484 -115.126390 180 2041ft 6kts
23-Mar-20 11:55 36.078896 -115.126366 180 2044ft 3kts
23-Mar-20 11:56 36.078276 -115.123339 89 2039ft 9kts
23-Mar-20 11:57 36.077514 -115.121561 136 2040ft 0kts
23-Mar-20 11:58 36.077514 -115.121561 136 2040ft 0kts
23-Mar-20 11:59 36.076946 -115.121294 173 2041ft 9kts
23-Mar-20 12:00 36.076446 -115.123561 269 2043ft 38kts
23-Mar-20 12:01 36.077017 -115.172133 266 3544ft 195kts
23-Mar-20 12:02 36.076545 -115.242245 265 5247ft 227kts
23-Mar-20 12:03 36.119040 -115.294048 345 7607ft 263kts
23-Mar-20 12:04 36.177176 -115.244314 70 9521ft 300kts
23-Mar-20 12:05 36.196501 -115.147258 92 11076ft 345kts
23-Mar-20 12:06 36.198071 -115.012384 92 13599ft 385kts
23-Mar-20 12:07 36.199464 -114.874934 91 16570ft 399kts
23-Mar-20 12:08 36.199838 -114.734922 92 19361ft 413kts
23-Mar-20 12:09 36.198217 -114.589419 92 22001ft 428kts
23-Mar-20 12:10 36.196355 -114.438123 92 24405ft 444kts
23-Mar-20 12:11 36.194277 -114.284941 92 26550ft 460kts
23-Mar-20 12:12 36.208291 -114.123672 83 28648ft 477kts
23-Mar-20 12:13 36.227849 -113.958402 83 30597ft 492kts
23-Mar-20 12:14 36.247799 -113.788380 83 32898ft 489kts
23-Mar-20 12:15 36.267810 -113.615628 83 34863ft 484kts
23-Mar-20 12:16 36.286968 -113.448103 83 35091ft 481kts
23-Mar-20 12:17 36.305624 -113.282846 83 35107ft 482kts
23-Mar-20 12:18 36.349124 -113.126188 66 35108ft 485kts
23-Mar-20 12:19 36.403363 -112.979692 66 35109ft 485kts
23-Mar-20 12:20 36.459608 -112.827573 66 35110ft 485kts
23-Mar-20 12:21 36.515571 -112.675526 66 35110ft 484kts
23-Mar-20 12:22 36.571382 -112.523158 66 35130ft 484kts
23-Mar-20 12:23 36.626852 -112.370969 66 35130ft 484kts
23-Mar-20 12:24 36.681912 -112.219156 66 35127ft 484kts
23-Mar-20 12:25 36.737174 -112.066043 66 35128ft 485kts
23-Mar-20 12:26 36.791763 -111.914030 66 35038ft 484kts
23-Mar-20 12:27 36.846962 -111.759540 66 35039ft 494kts
23-Mar-20 12:28 36.900266 -111.609609 66 35041ft 492kts
23-Mar-20 12:29 36.955539 -111.453359 66 35041ft 491kts
23-Mar-20 12:30 37.010506 -111.297179 66 35038ft 491kts
23-Mar-20 12:31 37.065008 -111.141508 66 35039ft 489kts
23-Mar-20 12:32 37.119423 -110.985280 66 35036ft 490kts
23-Mar-20 12:33 37.173719 -110.828578 66 35037ft 490kts
23-Mar-20 12:34 37.228125 -110.670721 66 35037ft 489kts
23-Mar-20 12:35 37.283120 -110.510321 66 35037ft 489kts
23-Mar-20 12:36 37.337693 -110.350281 66 35139ft 488kts
23-Mar-20 12:37 37.391177 -110.192555 67 35136ft 487kts
23-Mar-20 12:38 37.444884 -110.033364 67 35138ft 488kts
23-Mar-20 12:39 37.497818 -109.875607 67 35136ft 487kts
23-Mar-20 12:40 37.550707 -109.717115 67 35138ft 487kts
23-Mar-20 12:41 37.603223 -109.558895 67 35140ft 487kts
23-Mar-20 12:42 37.658053 -109.392778 67 35140ft 487kts
23-Mar-20 12:43 37.710323 -109.233530 67 35138ft 487kts
23-Mar-20 12:44 37.762078 -109.074967 67 35138ft 488kts
23-Mar-20 12:45 37.815509 -108.917202 59 35129ft 487kts
23-Mar-20 12:46 37.887096 -108.771215 57 35064ft 487kts
23-Mar-20 12:47 37.958363 -108.625088 57 35067ft 485kts
23-Mar-20 12:48 38.029111 -108.479320 57 35067ft 486kts
23-Mar-20 12:49 38.098374 -108.335970 58 35066ft 486kts
23-Mar-20 12:50 38.168645 -108.189874 57 35072ft 485kts
23-Mar-20 12:51 38.238654 -108.043697 57 35093ft 485kts
23-Mar-20 12:52 38.308592 -107.896989 57 35028ft 485kts
23-Mar-20 12:53 38.378788 -107.749065 57 35029ft 486kts
23-Mar-20 12:54 38.448165 -107.602178 57 35030ft 483kts
23-Mar-20 12:55 38.515354 -107.453186 58 35030ft 484kts
23-Mar-20 12:56 38.582383 -107.303515 59 35045ft 484kts
23-Mar-20 12:57 38.648980 -107.154097 59 35046ft 483kts
23-Mar-20 12:58 38.715383 -107.004446 59 35047ft 483kts
23-Mar-20 12:59 38.781347 -106.855065 58 35047ft 484kts
23-Mar-20 13:00 38.847520 -106.704470 58 35049ft 484kts
23-Mar-20 13:01 38.914957 -106.557189 57 35066ft 483kts
23-Mar-20 13:02 38.976532 -106.423982 56 34862ft 452kts
23-Mar-20 13:03 39.039377 -106.286752 58 32904ft 452kts
23-Mar-20 13:04 39.097649 -106.158079 58 30849ft 455kts
23-Mar-20 13:05 39.139959 -106.063031 58 29042ft 452kts
23-Mar-20 13:06 39.204793 -105.916118 58 26556ft 440kts
23-Mar-20 13:07 39.269353 -105.769161 58 24324ft 423kts
23-Mar-20 13:08 39.324449 -105.643324 57 22606ft 409kts
23-Mar-20 13:09 39.378509 -105.519832 58 21309ft 392kts
23-Mar-20 13:10 39.430679 -105.414042 52 20377ft 361kts
23-Mar-20 13:11 39.483402 -105.314229 53 18863ft 346kts
23-Mar-20 13:12 39.536601 -105.212870 53 17218ft 337kts
23-Mar-20 13:13 39.587454 -105.115706 54 16145ft 331kts
23-Mar-20 13:15 39.637560 -105.019649 55 15270ft 326kts
23-Mar-20 13:16 39.686589 -104.925029 56 14189ft 321kts
23-Mar-20 13:17 39.744371 -104.847140 17 13053ft 315kts
23-Mar-20 13:18 39.828545 -104.840360 0 11532ft 313kts
23-Mar-20 13:19 39.910819 -104.839183 0 11035ft 275kts
23-Mar-20 13:20 39.985886 -104.839725 359 10952ft 266kts
23-Mar-20 13:21 40.058862 -104.840204 359 10959ft 261kts
23-Mar-20 13:22 40.131668 -104.839595 359 11011ft 261kts
23-Mar-20 13:23 40.177720 -104.785195 87 10229ft 247kts
23-Mar-20 13:24 40.172193 -104.697671 134 9503ft 241kts
23-Mar-20 13:25 40.114560 -104.657749 178 8822ft 238kts
23-Mar-20 13:26 40.049565 -104.657885 179 8201ft 235kts
23-Mar-20 13:27 39.988035 -104.658566 179 7918ft 213kts
23-Mar-20 13:28 39.932627 -104.659279 179 6871ft 179kts
23-Mar-20 13:29 39.888404 -104.659789 178 6017ft 160kts
23-Mar-20 13:30 39.846296 -104.660387 181 5446ft 147kts
23-Mar-20 13:30 39.829648 -104.660665 203 5445ft 5kts
23-Mar-20 13:32 39.829326 -104.662413 271 5445ft 0kts
23-Mar-20 13:33 39.829328 -104.662526 271 5445ft 0kts
23-Mar-20 13:33 39.829330 -104.662638 271 5445ft 4kts
23-Mar-20 13:34 39.829367 -104.668427 269 5445ft 20kts
23-Mar-20 13:36 39.830199 -104.673095 313 5445ft 6kts
23-Mar-20 13:36 39.830896 -104.673398 359 5445ft 0kts
23-Mar-20 13:37 39.830896 -104.673398 359 5445ft 0kts
23-Mar-20 13:38 39.830896 -104.673398 359 5445ft 0kts

Navigation Log

Ident Type
Flight plan parsing failed, navigation log unavailable